Time;durP1;ratioP1;P1;durP2;ratioP2;P2;SDS_P1;SDS_P2;PMS_P1;PMS_P2;Temp;Humidity;BMP_temperature;BMP_pressure;BME280_temperature;BME280_humidity;BME280_pressure;Samples;Min_cycle;Max_cycle;Signal;HPM_P1;HPM_P2
2022/12/12 00:00:31;;;;;;;53.80;22.13;;;;;;;-3.20;100.00;97477.88;2249247;79;21025;-58
2022/12/12 00:03:34;;;;;;;52.43;21.42;;;;;;;-3.19;100.00;97478.72;2220146;79;21064;-58
2022/12/12 00:06:36;;;;;;;52.08;21.40;;;;;;;-3.18;100.00;97475.27;2249616;79;21476;-57
2022/12/12 00:09:37;;;;;;;52.83;22.95;;;;;;;-3.18;100.00;97479.95;2249383;79;21071;-58
2022/12/12 00:12:39;;;;;;;53.98;22.02;;;;;;;-3.16;100.00;97479.91;2249661;79;21491;-58
2022/12/12 00:15:40;;;;;;;54.23;21.85;;;;;;;-3.14;100.00;97480.73;2249141;79;21092;-58
2022/12/12 00:18:42;;;;;;;53.98;22.15;;;;;;;-3.16;100.00;97489.75;2249497;79;21508;-58
2022/12/12 00:21:43;;;;;;;54.35;22.30;;;;;;;-3.11;100.00;97488.78;2249207;79;21056;-58
2022/12/12 00:24:45;;;;;;;55.50;21.23;;;;;;;-3.16;100.00;97485.90;2249780;79;21033;-58
2022/12/12 00:27:46;;;;;;;48.75;20.57;;;;;;;-3.16;100.00;97494.88;2249509;79;21056;-57
2022/12/12 00:30:48;;;;;;;51.45;20.80;;;;;;;-3.12;100.00;97494.34;2248972;79;21143;-58
2022/12/12 00:33:50;;;;;;;46.92;18.87;;;;;;;-3.13;100.00;97496.52;2249210;79;21041;-58
2022/12/12 00:36:51;;;;;;;50.45;20.85;;;;;;;-3.10;100.00;97496.44;2249166;79;21065;-57
2022/12/12 00:39:53;;;;;;;46.15;19.32;;;;;;;-3.11;100.00;97497.77;2249461;79;21049;-57
2022/12/12 00:42:54;;;;;;;44.45;18.20;;;;;;;-3.04;100.00;97504.41;2248885;79;20973;-58
2022/12/12 00:45:56;;;;;;;45.52;17.37;;;;;;;-3.04;100.00;97506.97;2249253;79;21623;-58
2022/12/12 00:48:57;;;;;;;46.68;17.73;;;;;;;-3.02;100.00;97509.88;2249063;79;21025;-58
2022/12/12 00:51:59;;;;;;;49.00;19.95;;;;;;;-3.03;100.00;97508.63;2248994;79;21024;-58
2022/12/12 00:55:00;;;;;;;48.02;18.67;;;;;;;-3.04;100.00;97503.13;2249077;79;21512;-58
2022/12/12 00:58:01;;;;;;;43.05;17.82;;;;;;;-3.03;100.00;97505.64;2249124;79;21077;-58
2022/12/12 01:01:05;;;;;;;51.28;19.98;;;;;;;-3.04;100.00;97510.38;2249079;79;21024;-58
2022/12/12 01:04:06;;;;;;;43.68;16.37;;;;;;;-3.03;100.00;97506.06;2220463;79;20981;-57
2022/12/12 01:07:08;;;;;;;44.67;18.67;;;;;;;-3.03;100.00;97509.91;2249324;79;21008;-57
2022/12/12 01:10:09;;;;;;;43.65;19.45;;;;;;;-3.03;100.00;97518.90;2249074;79;21087;-59
2022/12/12 01:13:11;;;;;;;46.13;19.30;;;;;;;-3.03;100.00;97512.48;2249141;79;21064;-58
2022/12/12 01:16:12;;;;;;;43.45;19.02;;;;;;;-3.00;100.00;97507.30;2248928;79;21100;-58
2022/12/12 01:19:14;;;;;;;46.05;19.35;;;;;;;-2.98;100.00;97505.52;2249328;79;21093;-57
2022/12/12 01:22:15;;;;;;;46.80;19.37;;;;;;;-2.98;100.00;97505.06;2249274;79;21055;-58
2022/12/12 01:25:17;;;;;;;43.78;18.20;;;;;;;-2.99;100.00;97508.53;2249159;79;21551;-58
2022/12/12 01:28:18;;;;;;;44.57;18.77;;;;;;;-2.98;100.00;97498.64;2249327;79;21041;-58
2022/12/12 01:31:20;;;;;;;43.85;18.07;;;;;;;-2.98;100.00;97494.80;2249292;79;20980;-58
2022/12/12 01:34:21;;;;;;;47.58;19.67;;;;;;;-2.96;100.00;97496.89;2249476;79;21017;-58
2022/12/12 01:37:23;;;;;;;45.33;17.12;;;;;;;-2.98;100.00;97487.55;2249023;79;21024;-58
2022/12/12 01:40:24;;;;;;;43.78;17.95;;;;;;;-3.01;100.00;97480.77;2249308;79;21525;-58
2022/12/12 01:43:26;;;;;;;42.80;17.98;;;;;;;-3.05;100.00;97480.91;2249013;79;21030;-57
2022/12/12 01:46:27;;;;;;;44.60;18.27;;;;;;;-3.11;100.00;97485.77;2249563;79;21563;-58
2022/12/12 01:49:29;;;;;;;44.38;18.02;;;;;;;-3.09;100.00;97478.02;2249311;79;21009;-58
2022/12/12 01:52:31;;;;;;;45.48;18.80;;;;;;;-3.09;100.00;97475.46;2248808;79;21654;-58
2022/12/12 01:55:33;;;;;;;40.78;16.77;;;;;;;-3.08;100.00;97469.00;2249140;79;21028;-58
2022/12/12 01:58:34;;;;;;;40.38;15.90;;;;;;;-3.08;100.00;97475.41;2249027;79;21013;-58
2022/12/12 02:01:36;;;;;;;43.38;17.37;;;;;;;-3.07;100.00;97472.43;2249121;79;21021;-57
2022/12/12 02:04:37;;;;;;;41.48;18.27;;;;;;;-3.06;100.00;97465.97;2249051;79;21029;-58
2022/12/12 02:07:38;;;;;;;43.55;15.83;;;;;;;-3.07;100.00;97463.45;2249231;79;21045;-58
2022/12/12 02:10:40;;;;;;;41.02;16.93;;;;;;;-3.09;100.00;97461.34;2249021;79;21021;-58
2022/12/12 02:13:41;;;;;;;43.95;16.07;;;;;;;-3.10;100.00;97456.67;2249144;79;21543;-58
2022/12/12 02:16:43;;;;;;;43.83;17.07;;;;;;;-3.16;100.00;97454.26;2247771;79;20984;-58
2022/12/12 02:19:45;;;;;;;44.13;17.45;;;;;;;-3.10;100.00;97451.97;2249339;79;21543;-58
2022/12/12 02:22:46;;;;;;;40.60;17.62;;;;;;;-3.11;100.00;97454.98;2249265;79;21053;-58
2022/12/12 02:25:48;;;;;;;41.20;16.60;;;;;;;-3.12;100.00;97450.73;2249422;79;21520;-58
2022/12/12 02:28:49;;;;;;;44.30;16.30;;;;;;;-3.11;100.00;97458.83;2249007;79;21059;-58
2022/12/12 02:31:51;;;;;;;43.65;15.72;;;;;;;-3.14;100.00;97466.16;2249007;79;21547;-58
2022/12/12 02:34:52;;;;;;;41.55;16.42;;;;;;;-3.11;100.00;97458.83;2249162;79;21063;-58
2022/12/12 02:37:54;;;;;;;41.02;17.62;;;;;;;-3.13;100.00;97458.05;2249278;79;21541;-58
2022/12/12 02:40:56;;;;;;;41.98;16.95;;;;;;;-3.10;100.00;97459.66;2249100;79;21077;-57
2022/12/12 02:43:57;;;;;;;34.83;13.90;;;;;;;-3.10;100.00;97467.36;2249280;79;21045;-58
2022/12/12 02:46:58;;;;;;;41.45;16.25;;;;;;;-3.14;100.00;97470.01;2249070;79;21049;-58
2022/12/12 02:50:00;;;;;;;39.55;15.93;;;;;;;-3.15;100.00;97473.48;2248952;79;21051;-58
2022/12/12 02:53:02;;;;;;;38.98;14.87;;;;;;;-3.16;100.00;97465.80;2249467;79;21000;-58
2022/12/12 02:56:03;;;;;;;40.20;15.00;;;;;;;-3.15;100.00;97467.48;2249022;79;21060;-58
2022/12/12 02:59:04;;;;;;;40.28;15.08;;;;;;;-3.14;100.00;97473.03;2249258;79;21032;-58
2022/12/12 03:02:06;;;;;;;39.67;15.38;;;;;;;-3.19;100.00;97469.31;2248978;79;21048;-58
2022/12/12 03:08:11;;;;;;;34.78;14.55;;;;;;;-3.16;100.00;97461.53;2220213;79;20965;-58
2022/12/12 03:11:12;;;;;;;42.50;15.70;;;;;;;-3.15;100.00;97459.38;2249090;79;20973;-58
2022/12/12 03:14:13;;;;;;;40.10;14.83;;;;;;;-3.14;100.00;97461.03;2249343;79;21588;-58
2022/12/12 03:17:15;;;;;;;38.02;15.03;;;;;;;-3.15;100.00;97468.35;2255360;79;20996;-57
2022/12/12 03:20:16;;;;;;;38.13;13.83;;;;;;;-3.15;100.00;97459.80;2256385;79;21040;-58
2022/12/12 03:23:18;;;;;;;41.58;15.60;;;;;;;-3.16;100.00;97461.53;2256416;79;21033;-58
2022/12/12 03:26:19;;;;;;;39.40;14.25;;;;;;;-3.15;100.00;97466.20;2256352;79;21068;-58
2022/12/12 03:29:20;;;;;;;37.40;13.43;;;;;;;-3.15;100.00;97464.50;2256626;79;21582;-57
2022/12/12 03:32:22;;;;;;;38.63;15.28;;;;;;;-3.17;100.00;97459.84;2256343;79;21028;-57
2022/12/12 03:35:23;;;;;;;38.77;15.00;;;;;;;-3.17;100.00;97467.53;2256790;79;21536;-58
2022/12/12 03:38:25;;;;;;;37.10;14.18;;;;;;;-3.17;100.00;97464.97;2256662;79;21077;-58
2022/12/12 03:41:26;;;;;;;35.70;14.05;;;;;;;-3.14;100.00;97466.61;2256184;79;21091;-58
2022/12/12 03:44:28;;;;;;;36.55;13.62;;;;;;;-3.14;100.00;97464.88;2256471;79;21040;-58
2022/12/12 03:47:29;;;;;;;38.28;14.10;;;;;;;-3.11;100.00;97465.70;2256611;79;21053;-58
2022/12/12 03:50:31;;;;;;;35.57;13.30;;;;;;;-3.10;100.00;97463.51;2256456;79;21017;-57
2022/12/12 03:53:32;;;;;;;41.07;13.93;;;;;;;-3.11;100.00;97463.13;2256557;79;21068;-58
2022/12/12 03:56:34;;;;;;;38.55;13.88;;;;;;;-3.10;100.00;97463.51;2255910;79;21251;-58
2022/12/12 03:59:35;;;;;;;37.38;14.03;;;;;;;-3.06;100.00;97466.39;2256471;79;21527;-58
2022/12/12 04:02:36;;;;;;;34.90;11.68;;;;;;;-3.04;100.00;97464.64;2256173;79;21052;-58
2022/12/12 04:06:25;;;;;;;36.42;14.13;;;;;;;-3.00;100.00;97470.09;2256179;79;21554;-57
2022/12/12 04:12:57;;;;;;;39.35;15.13;;;;;;;-3.03;100.00;97467.58;2229560;79;21051;-58
2022/12/12 04:14:48;;;;;;;43.38;15.43;;;;;;;-3.01;100.00;97466.66;2229612;79;21020;-58
2022/12/12 04:17:49;;;;;;;43.83;14.90;;;;;;;-3.01;100.00;97458.14;2249185;79;21077;-57
2022/12/12 04:23:54;;;;;;;38.33;13.93;;;;;;;-2.99;100.00;97457.22;2220234;79;21027;-58
2022/12/12 04:26:55;;;;;;;37.33;14.55;;;;;;;-2.89;100.00;97455.66;2249064;79;20953;-58
2022/12/12 04:29:57;;;;;;;41.30;16.40;;;;;;;-2.90;100.00;97454.83;2249217;79;21052;-57
2022/12/12 04:32:58;;;;;;;42.73;15.75;;;;;;;-2.86;100.00;97455.56;2249076;79;21020;-58
2022/12/12 04:35:59;;;;;;;41.23;15.88;;;;;;;-2.88;100.00;97454.78;2248883;79;21115;-58
2022/12/12 04:39:01;;;;;;;41.33;16.00;;;;;;;-2.87;100.00;97459.03;2249121;79;21037;-58
2022/12/12 04:42:02;;;;;;;39.65;15.50;;;;;;;-2.86;100.00;97455.14;2249254;79;21496;-57
2022/12/12 04:45:04;;;;;;;41.95;15.83;;;;;;;-2.87;100.00;97452.17;2249308;79;21072;-58
2022/12/12 04:48:05;;;;;;;39.75;15.50;;;;;;;-2.87;100.00;97461.15;2249059;79;21060;-58
2022/12/12 04:51:07;;;;;;;36.85;14.58;;;;;;;-2.86;100.00;97457.70;2249171;79;21044;-58
2022/12/12 04:54:08;;;;;;;38.43;15.70;;;;;;;-2.85;100.00;97453.41;2249018;79;21004;-58
2022/12/12 04:57:10;;;;;;;41.10;16.32;;;;;;;-2.83;100.00;97458.03;2249367;79;21017;-58
2022/12/12 05:00:11;;;;;;;38.30;15.30;;;;;;;-2.85;100.00;97452.95;2249442;79;21088;-58
2022/12/12 05:03:13;;;;;;;38.65;15.55;;;;;;;-2.86;100.00;97450.01;2248903;79;21582;-57
2022/12/12 05:06:14;;;;;;;40.05;15.03;;;;;;;-2.84;100.00;97452.07;2249157;79;21057;-57
2022/12/12 05:09:16;;;;;;;42.65;16.27;;;;;;;-2.85;100.00;97451.66;2249227;79;21036;-58
2022/12/12 05:12:17;;;;;;;41.08;15.28;;;;;;;-2.87;100.00;97446.20;2249349;79;21081;-57
2022/12/12 05:15:19;;;;;;;43.23;16.00;;;;;;;-2.89;100.00;97447.95;2249242;79;21013;-57
2022/12/12 05:18:20;;;;;;;38.45;16.32;;;;;;;-2.82;100.00;97445.61;2249336;79;21052;-57
2022/12/12 05:21:22;;;;;;;41.28;15.63;;;;;;;-2.82;100.00;97444.33;2249160;79;21041;-58
2022/12/12 05:24:30;;;;;;;40.55;14.85;;;;;;;-2.77;100.00;97442.48;2249406;79;21013;-58
2022/12/12 05:27:27;;;;;;;40.35;15.35;;;;;;;-2.76;100.00;97452.29;2220332;79;21050;-57
2022/12/12 05:30:28;;;;;;;43.95;16.25;;;;;;;-2.78;100.00;97452.34;2248950;79;21096;-57
2022/12/12 05:33:29;;;;;;;42.05;16.32;;;;;;;-2.77;100.00;97447.61;2249132;79;21025;-58
2022/12/12 05:36:31;;;;;;;39.92;16.40;;;;;;;-2.76;100.00;97447.16;2249033;79;21020;-58
2022/12/12 05:39:32;;;;;;;40.05;16.50;;;;;;;-2.77;100.00;97451.47;2248961;79;21539;-58
2022/12/12 05:42:34;;;;;;;39.58;15.15;;;;;;;-2.80;100.00;97441.30;2249267;79;21021;-58
2022/12/12 05:45:35;;;;;;;41.05;15.75;;;;;;;-2.79;100.00;97446.38;2249265;79;21571;-57
2022/12/12 05:48:37;;;;;;;43.58;16.35;;;;;;;-2.76;100.00;97447.98;2249084;79;21021;-58
2022/12/12 05:51:38;;;;;;;41.17;15.20;;;;;;;-2.78;100.00;97449.77;2249242;79;21507;-58
2022/12/12 05:54:40;;;;;;;42.48;16.10;;;;;;;-2.76;100.00;97447.98;2249271;79;21047;-58
2022/12/12 05:57:41;;;;;;;39.90;15.60;;;;;;;-2.81;100.00;97449.41;2249011;79;21068;-58
2022/12/12 06:00:43;;;;;;;42.65;16.45;;;;;;;-2.77;100.00;97448.03;2248980;79;21119;-58
2022/12/12 06:03:44;;;;;;;41.40;15.90;;;;;;;-2.77;100.00;97449.32;2249011;79;21021;-58
2022/12/12 06:06:45;;;;;;;43.60;15.28;;;;;;;-2.77;100.00;97450.60;2249179;79;21036;-57
2022/12/12 06:09:47;;;;;;;40.03;16.35;;;;;;;-2.77;100.00;97449.32;2249002;79;21028;-58
2022/12/12 06:12:48;;;;;;;51.50;19.23;;;;;;;-2.79;100.00;97447.66;2249546;79;21508;-58
2022/12/12 06:15:50;;;;;;;50.88;19.20;;;;;;;-2.74;100.00;97446.66;2250042;79;21052;-57
2022/12/12 06:18:51;;;;;;;45.95;16.77;;;;;;;-2.72;100.00;97450.03;2256221;79;21543;-58
2022/12/12 06:21:53;;;;;;;46.75;18.27;;;;;;;-2.75;100.00;97458.66;2256259;79;21024;-58
2022/12/12 06:24:54;;;;;;;47.85;17.73;;;;;;;-2.71;100.00;97456.86;2256207;79;21091;-58
2022/12/12 06:27:56;;;;;;;47.13;19.07;;;;;;;-2.70;100.00;97459.38;2256137;79;21028;-58
2022/12/12 06:30:57;;;;;;;46.23;18.65;;;;;;;-2.72;100.00;97456.00;2256046;79;20980;-58
2022/12/12 06:33:58;;;;;;;48.50;20.37;;;;;;;-2.71;100.00;97461.54;2256222;79;21013;-58
2022/12/12 06:37:00;;;;;;;44.15;18.07;;;;;;;-2.69;100.00;97459.75;2256081;79;21051;-57
2022/12/12 06:40:01;;;;;;;48.57;19.30;;;;;;;-2.68;100.00;97467.86;2256616;79;21516;-58
2022/12/12 06:43:03;;;;;;;44.08;18.37;;;;;;;-2.62;100.00;97472.81;2256055;79;21044;-58
2022/12/12 06:46:05;;;;;;;43.58;18.90;;;;;;;-2.59;100.00;97469.31;2256300;79;21587;-58
2022/12/12 06:49:09;;;;;;;42.23;18.62;;;;;;;-2.50;100.00;97473.33;2256210;79;21084;-57
2022/12/12 06:52:10;;;;;;;42.83;18.50;;;;;;;-2.48;100.00;97477.54;2229385;79;20993;-58
2022/12/12 06:55:11;;;;;;;47.20;19.92;;;;;;;-2.43;100.00;97481.25;2256169;79;21072;-58
2022/12/12 06:58:12;;;;;;;49.93;20.50;;;;;;;-2.40;100.00;97484.17;2256273;79;21021;-57
2022/12/12 07:01:14;;;;;;;45.73;19.57;;;;;;;-2.36;100.00;97472.92;2256503;79;21583;-58
2022/12/12 07:04:15;;;;;;;45.60;19.80;;;;;;;-2.34;100.00;97477.55;2256289;79;21057;-58
2022/12/12 07:07:17;;;;;;;47.43;18.40;;;;;;;-2.34;100.00;97482.69;2256244;79;21557;-58
2022/12/12 07:10:18;;;;;;;46.83;19.92;;;;;;;-2.32;100.00;97488.19;2256361;79;21017;-58
2022/12/12 07:13:20;;;;;;;42.65;17.95;;;;;;;-2.27;100.00;97485.47;2256245;79;21020;-58
2022/12/12 07:16:21;;;;;;;41.33;18.92;;;;;;;-2.25;100.00;97488.02;2254654;79;21085;-58
2022/12/12 07:19:22;;;;;;;44.03;18.80;;;;;;;-2.22;100.00;97491.32;2249230;79;21052;-58
2022/12/12 07:22:24;;;;;;;44.33;19.67;;;;;;;-2.16;100.00;97495.43;2249043;79;21124;-58
2022/12/12 07:25:26;;;;;;;45.17;19.57;;;;;;;-2.09;100.00;97503.34;2249390;79;21061;-58
2022/12/12 07:28:27;;;;;;;42.00;17.80;;;;;;;-2.03;100.00;97503.59;2249407;79;21052;-58
2022/12/12 07:31:29;;;;;;;46.00;20.37;;;;;;;-1.96;100.00;97510.22;2249267;79;21057;-57
2022/12/12 07:34:31;;;;;;;43.58;18.82;;;;;;;-1.92;100.00;97507.50;2249707;79;21512;-58
2022/12/12 07:37:32;;;;;;;45.80;19.23;;;;;;;-1.86;100.00;97507.75;2249416;79;21057;-58
2022/12/12 07:40:34;;;;;;;44.97;18.53;;;;;;;-1.83;100.00;97508.11;2249520;79;21013;-57
2022/12/12 07:43:35;;;;;;;50.67;21.00;;;;;;;-1.76;100.00;97512.98;2249129;79;21017;-57
2022/12/12 07:46:37;;;;;;;49.98;20.77;;;;;;;-1.70;100.00;97510.66;2249363;79;21526;-58
2022/12/12 07:49:39;;;;;;;53.70;22.58;;;;;;;-1.64;100.00;97512.20;2248903;79;21079;-57
2022/12/12 07:52:40;;;;;;;46.63;20.00;;;;;;;-1.60;100.00;97513.78;2248857;79;21543;-58
2022/12/12 07:55:42;;;;;;;46.48;19.17;;;;;;;-1.55;100.00;97519.62;2249301;79;21091;-57
2022/12/12 07:58:43;;;;;;;42.43;18.35;;;;;;;-1.53;100.00;97508.00;2249145;79;21527;-57
2022/12/12 08:01:44;;;;;;;44.85;20.15;;;;;;;-1.44;100.00;97514.11;2249348;79;21012;-58
2022/12/12 08:04:47;;;;;;;44.88;20.25;;;;;;;-1.40;100.00;97513.12;2249387;79;21032;-58
2022/12/12 08:07:48;;;;;;;43.10;19.02;;;;;;;-1.40;100.00;97516.98;2249089;79;21061;-58
2022/12/12 08:10:50;;;;;;;43.95;19.92;;;;;;;-1.34;100.00;97513.36;2249340;79;21064;-58
2022/12/12 08:13:51;;;;;;;42.58;18.52;;;;;;;-1.28;100.00;97511.43;2249495;79;21496;-57
2022/12/12 08:16:52;;;;;;;41.18;18.57;;;;;;;-1.26;100.00;97514.78;2249196;79;21068;-58
2022/12/12 08:19:54;;;;;;;39.58;18.42;;;;;;;-1.22;100.00;97511.20;2249402;79;21525;-58
2022/12/12 08:22:56;;;;;;;42.62;19.48;;;;;;;-1.19;100.00;97508.13;2249167;79;21380;-58
2022/12/12 08:25:57;;;;;;;43.02;19.27;;;;;;;-1.11;100.00;97517.25;2249456;79;21060;-57
2022/12/12 08:28:58;;;;;;;44.08;18.45;;;;;;;-1.10;100.00;97517.66;2249347;79;21012;-58
2022/12/12 08:32:00;;;;;;;42.65;20.43;;;;;;;-1.07;100.00;97509.00;2249243;79;21041;-58
2022/12/12 08:35:02;;;;;;;41.55;18.90;;;;;;;-1.03;100.00;97520.87;2249246;79;21045;-58
2022/12/12 08:38:04;;;;;;;43.05;19.35;;;;;;;-0.98;100.00;97509.94;2249272;79;21045;-58
2022/12/12 08:41:05;;;;;;;41.63;19.30;;;;;;;-0.83;100.00;97516.30;2249205;79;21080;-58
2022/12/12 08:44:06;;;;;;;49.67;20.60;;;;;;;-0.81;100.00;97514.95;2249016;79;21099;-58
2022/12/12 08:47:08;;;;;;;49.63;19.80;;;;;;;-0.79;100.00;97511.86;2249334;79;21033;-57
2022/12/12 08:50:10;;;;;;;43.38;19.05;;;;;;;-0.79;100.00;97514.44;2249335;79;21049;-58
2022/12/12 08:53:12;;;;;;;42.70;19.70;;;;;;;-0.78;100.00;97518.24;2249393;79;21033;-58
2022/12/12 08:56:13;;;;;;;45.78;19.62;;;;;;;-0.75;100.00;97518.16;2249082;79;21036;-58
2022/12/12 08:59:15;;;;;;;43.73;19.80;;;;;;;-0.74;100.00;97520.27;2249290;79;21546;-58
2022/12/12 09:02:16;;;;;;;43.23;19.20;;;;;;;-0.76;100.00;97519.05;2249041;79;21053;-58
2022/12/12 09:05:18;;;;;;;39.08;18.02;;;;;;;-0.72;100.00;97529.63;2249025;79;21531;-58
2022/12/12 09:08:19;;;;;;;41.80;20.00;;;;;;;-0.76;100.00;97520.33;2249336;79;21116;-58
2022/12/12 09:11:21;;;;;;;41.98;18.37;;;;;;;-0.71;100.00;97519.70;2248995;79;21001;-58
2022/12/12 09:14:22;;;;;;;38.07;18.20;;;;;;;-0.71;100.00;97521.45;2249482;79;21064;-57
2022/12/12 09:17:24;;;;;;;45.23;19.35;;;;;;;-0.68;100.00;97512.31;2248936;79;21065;-58
2022/12/12 09:20:25;;;;;;;38.53;16.95;;;;;;;-0.70;100.00;97513.66;2249288;79;21574;-58
2022/12/12 09:23:27;;;;;;;42.20;17.92;;;;;;;-0.69;100.00;97518.35;2249065;79;21044;-57
2022/12/12 09:26:28;;;;;;;45.60;19.70;;;;;;;-0.70;100.00;97512.38;2249456;79;21507;-58
2022/12/12 09:29:30;;;;;;;44.98;19.67;;;;;;;-0.73;100.00;97514.23;2249035;79;21036;-58
2022/12/12 09:32:31;;;;;;;43.35;18.80;;;;;;;-0.62;100.00;97517.69;2249318;79;21493;-58
2022/12/12 09:35:33;;;;;;;41.88;18.37;;;;;;;-0.57;100.00;97519.66;2249169;79;21032;-57
2022/12/12 09:38:34;;;;;;;40.67;17.37;;;;;;;-0.47;100.00;97514.55;2248976;79;21150;-58
2022/12/12 09:41:37;;;;;;;44.30;19.67;;;;;;;-0.54;100.00;97515.68;2249161;79;21020;-58
2022/12/12 09:44:39;;;;;;;41.73;18.92;;;;;;;-0.57;100.00;97514.05;2220489;79;20980;-58
2022/12/12 09:47:40;;;;;;;41.77;18.02;;;;;;;-0.44;100.00;97516.19;2249642;79;21471;-57
2022/12/12 09:50:42;;;;;;;42.53;18.95;;;;;;;-0.47;100.00;97524.03;2249263;79;21089;-57
2022/12/12 09:53:44;;;;;;;39.10;18.47;;;;;;;-0.51;100.00;97523.75;2249437;79;21088;-58
2022/12/12 09:56:45;;;;;;;40.38;18.48;;;;;;;-0.42;100.00;97531.95;2249206;79;21178;-57
2022/12/12 09:59:47;;;;;;;39.18;18.55;;;;;;;-0.45;100.00;97526.91;2249063;79;21056;-57
2022/12/12 10:02:48;;;;;;;39.55;18.05;;;;;;;-0.47;100.00;97528.73;2248975;79;21572;-58
2022/12/12 10:05:49;;;;;;;37.58;17.80;;;;;;;-0.48;100.00;97527.03;2249105;79;21029;-58
2022/12/12 10:08:51;;;;;;;39.18;17.25;;;;;;;-0.38;100.00;97530.12;2248669;79;21019;-58
2022/12/12 10:11:53;;;;;;;40.85;18.02;;;;;;;-0.29;100.00;97527.17;2249301;79;21043;-58
2022/12/12 10:14:55;;;;;;;41.37;19.07;;;;;;;-0.24;100.00;97527.03;2249443;79;21543;-57
2022/12/12 10:17:56;;;;;;;40.48;17.82;;;;;;;-0.18;100.00;97523.75;2252278;79;21087;-58
2022/12/12 10:20:58;;;;;;;40.58;18.00;;;;;;;-0.10;100.00;97526.05;2256316;79;21563;-57
2022/12/12 10:23:59;;;;;;;36.68;17.57;;;;;;;-0.03;100.00;97524.05;2256951;79;21007;-58
2022/12/12 10:27:01;;;;;;;39.83;17.67;;;;;;;0.00;100.00;97514.94;2256265;79;21058;-58
2022/12/12 10:30:03;;;;;;;39.63;17.98;;;;;;;0.02;100.00;97516.16;2256702;79;21068;-57
2022/12/12 10:33:04;;;;;;;37.93;17.10;;;;;;;0.01;100.00;97510.61;2256377;79;21096;-58
2022/12/12 10:36:06;;;;;;;40.25;18.48;;;;;;;-0.05;100.00;97518.13;2256148;79;21122;-58
2022/12/12 10:39:08;;;;;;;39.27;18.50;;;;;;;-0.05;100.00;97516.84;2256379;79;21061;-58
2022/12/12 10:42:09;;;;;;;40.45;18.05;;;;;;;0.02;100.00;97514.41;2256502;79;21092;-58
2022/12/12 10:45:11;;;;;;;41.42;18.87;;;;;;;0.04;100.00;97516.92;2256679;79;21507;-58
2022/12/12 10:48:13;;;;;;;35.93;16.90;;;;;;;0.07;100.00;97518.09;2256460;79;21080;-58
2022/12/12 10:51:14;;;;;;;39.23;18.10;;;;;;;0.13;100.00;97513.97;2256619;79;21739;-58
2022/12/12 10:54:16;;;;;;;38.33;17.37;;;;;;;0.18;100.00;97513.81;2256582;79;21020;-58
2022/12/12 10:57:18;;;;;;;39.67;18.37;;;;;;;0.23;100.00;97510.58;2256522;79;21033;-58
2022/12/12 11:00:19;;;;;;;37.75;16.05;;;;;;;0.25;100.00;97511.38;2256141;79;21100;-58
2022/12/12 11:03:21;;;;;;;38.50;16.82;;;;;;;0.33;100.00;97513.17;2256542;79;21543;-57
2022/12/12 11:06:22;;;;;;;37.28;17.30;;;;;;;0.50;100.00;97513.34;2256287;79;21051;-57
2022/12/12 11:09:23;;;;;;;39.20;17.10;;;;;;;0.46;100.00;97512.22;2256528;79;21511;-58
2022/12/12 11:12:25;;;;;;;38.05;16.82;;;;;;;0.36;100.00;97515.66;2256242;79;21052;-58
2022/12/12 11:15:27;;;;;;;40.10;17.32;;;;;;;0.44;100.00;97508.41;2256298;79;21118;-57
2022/12/12 11:18:29;;;;;;;39.42;18.70;;;;;;;0.45;100.00;97508.81;2252247;79;21068;-57
2022/12/12 11:21:30;;;;;;;38.33;16.90;;;;;;;0.58;100.00;97512.19;2249435;79;21531;-58
2022/12/12 11:24:32;;;;;;;38.40;16.87;;;;;;;0.58;100.00;97513.48;2249184;79;21076;-58
2022/12/12 11:27:33;;;;;;;37.83;17.20;;;;;;;0.60;100.00;97510.38;2249033;79;21587;-58
2022/12/12 11:30:34;;;;;;;39.03;16.40;;;;;;;0.58;100.00;97514.77;2249414;79;21056;-58
2022/12/12 11:33:36;;;;;;;36.07;15.57;;;;;;;0.51;100.00;97518.05;2249455;79;21116;-57
2022/12/12 11:36:38;;;;;;;37.08;16.40;;;;;;;0.48;100.00;97512.55;2249335;79;21717;-57
2022/12/12 11:39:39;;;;;;;40.05;17.52;;;;;;;0.48;100.00;97509.14;2249284;79;21080;-58
2022/12/12 11:42:41;;;;;;;39.80;17.27;;;;;;;0.58;100.00;97515.59;2249623;79;21029;-58
2022/12/12 11:45:42;;;;;;;38.60;16.55;;;;;;;0.50;100.00;97512.05;2249121;79;21111;-58
2022/12/12 11:48:44;;;;;;;38.55;17.73;;;;;;;0.49;100.00;97515.53;2249435;79;21022;-58
2022/12/12 11:51:47;;;;;;;38.60;17.02;;;;;;;0.45;100.00;97517.02;2249409;79;21056;-58
2022/12/12 11:54:49;;;;;;;37.45;17.65;;;;;;;0.41;100.00;97521.91;2249246;79;21068;-57
2022/12/12 11:57:50;;;;;;;37.38;17.17;;;;;;;0.45;100.00;97518.30;2249390;79;21585;-58
2022/12/12 12:00:52;;;;;;;36.48;15.98;;;;;;;0.39;100.00;97521.97;2249124;79;21065;-57
2022/12/12 12:03:53;;;;;;;35.15;15.93;;;;;;;0.31;100.00;97533.05;2249570;79;21032;-58
2022/12/12 12:06:55;;;;;;;33.18;15.18;;;;;;;0.29;100.00;97523.25;2248869;79;20993;-58
2022/12/12 12:09:57;;;;;;;35.88;14.45;;;;;;;0.31;100.00;97524.02;2249123;79;21111;-58
2022/12/12 12:12:59;;;;;;;34.25;14.45;;;;;;;0.32;100.00;97525.23;2249315;79;21128;-57
2022/12/12 12:16:00;;;;;;;33.58;14.47;;;;;;;0.30;100.00;97528.77;2248827;79;20957;-58
2022/12/12 12:19:02;;;;;;;36.50;15.97;;;;;;;0.29;100.00;97524.08;2254076;79;21052;-58
2022/12/12 12:22:03;;;;;;;34.03;14.93;;;;;;;0.22;100.00;97527.80;2256507;79;21052;-58
2022/12/12 12:25:05;;;;;;;31.35;13.88;;;;;;;0.22;100.00;97528.27;2256714;79;21020;-58
2022/12/12 12:28:07;;;;;;;34.33;14.78;;;;;;;0.14;100.00;97528.12;2256109;79;21008;-58
2022/12/12 12:31:08;;;;;;;32.90;15.05;;;;;;;0.14;100.00;97525.54;2256401;79;21041;-57
2022/12/12 12:34:09;;;;;;;31.35;13.28;;;;;;;0.14;100.00;97533.28;2256295;79;21080;-57
2022/12/12 12:37:11;;;;;;;30.72;13.75;;;;;;;0.12;100.00;97528.61;2256098;79;21555;-57
2022/12/12 12:40:13;;;;;;;34.30;13.80;;;;;;;0.18;100.00;97533.98;2256383;79;21056;-58
2022/12/12 12:43:14;;;;;;;31.25;13.88;;;;;;;0.25;100.00;97525.09;2256605;79;21471;-58
2022/12/12 12:46:16;;;;;;;31.65;13.68;;;;;;;0.28;100.00;97530.59;2256192;79;21079;-58
2022/12/12 12:49:17;;;;;;;32.42;13.55;;;;;;;0.26;100.00;97531.09;2256480;79;21547;-58
2022/12/12 12:52:19;;;;;;;33.15;13.65;;;;;;;0.26;100.00;97531.09;2256371;79;21012;-58
2022/12/12 12:55:20;;;;;;;30.15;12.50;;;;;;;0.22;100.00;97539.41;2256164;79;21024;-58
2022/12/12 12:58:22;;;;;;;30.00;13.03;;;;;;;0.20;100.00;97541.19;2256691;79;21064;-57
2022/12/12 13:01:23;;;;;;;33.58;14.68;;;;;;;0.19;100.00;97545.98;2256128;79;21040;-58
2022/12/12 13:04:25;;;;;;;33.57;14.37;;;;;;;0.15;100.00;97543.12;2256691;79;21033;-58
2022/12/12 13:07:26;;;;;;;35.40;14.53;;;;;;;0.19;100.00;97549.85;2256154;79;21001;-58
2022/12/12 13:10:28;;;;;;;33.35;14.10;;;;;;;0.20;100.00;97548.10;2256649;79;20977;-58
2022/12/12 13:13:30;;;;;;;35.40;14.77;;;;;;;0.14;100.00;97553.05;2256595;79;21056;-57
2022/12/12 13:16:31;;;;;;;34.53;13.60;;;;;;;0.11;100.00;97549.30;2256504;79;21603;-58
2022/12/12 13:19:34;;;;;;;33.75;13.05;;;;;;;0.07;100.00;97558.05;2250764;79;21064;-58
2022/12/12 13:22:36;;;;;;;32.90;13.48;;;;;;;-0.02;100.00;97562.66;2249168;79;21087;-58
2022/12/12 13:25:38;;;;;;;39.30;15.53;;;;;;;-0.01;100.00;97561.77;2249216;79;21058;-58
2022/12/12 13:28:39;;;;;;;32.35;14.65;;;;;;;-0.01;100.00;97566.09;2249314;79;21033;-58
2022/12/12 13:31:41;;;;;;;36.15;13.85;;;;;;;-0.09;100.00;97570.70;2249034;79;21024;-57
2022/12/12 13:34:43;;;;;;;32.88;13.62;;;;;;;-0.12;100.00;97584.53;2249438;79;21095;-58
2022/12/12 13:37:45;;;;;;;35.05;14.43;;;;;;;-0.17;100.00;97577.45;2249178;79;21524;-58
2022/12/12 13:40:46;;;;;;;32.53;13.25;;;;;;;-0.21;100.00;97580.57;2249086;79;21127;-58
2022/12/12 13:43:48;;;;;;;32.23;13.17;;;;;;;-0.21;100.00;97588.77;2249334;79;21053;-58
2022/12/12 13:46:49;;;;;;;35.47;14.20;;;;;;;-0.25;100.00;97589.30;2249626;79;21093;-58
2022/12/12 13:49:51;;;;;;;33.42;13.98;;;;;;;-0.27;100.00;97592.41;2249305;79;21021;-58
2022/12/12 13:52:53;;;;;;;33.00;13.63;;;;;;;-0.27;100.00;97593.69;2249313;79;21061;-57
2022/12/12 13:55:54;;;;;;;32.65;13.58;;;;;;;-0.32;100.00;97598.63;2249143;79;21016;-58